sensor_id;sensor_type;location;lat;lon;timestamp;P1;durP1;ratioP1;P2;durP2;ratioP2
73296;SDS011;61524;50.938;11.396;2022-08-30T00:01:04;12.80;;;3.38;;
73296;SDS011;61524;50.938;11.396;2022-08-30T00:03:39;6.80;;;2.95;;
73296;SDS011;61524;50.938;11.396;2022-08-30T00:06:09;6.53;;;2.55;;
73296;SDS011;61524;50.938;11.396;2022-08-30T00:08:36;6.05;;;2.60;;
73296;SDS011;61524;50.938;11.396;2022-08-30T00:11:02;5.80;;;2.80;;
73296;SDS011;61524;50.938;11.396;2022-08-30T00:13:30;6.13;;;2.47;;
73296;SDS011;61524;50.938;11.396;2022-08-30T00:15:56;5.65;;;2.78;;
73296;SDS011;61524;50.938;11.396;2022-08-30T00:18:22;5.85;;;3.08;;
73296;SDS011;61524;50.938;11.396;2022-08-30T00:20:48;6.28;;;3.45;;
73296;SDS011;61524;50.938;11.396;2022-08-30T00:23:14;6.57;;;2.13;;
73296;SDS011;61524;50.938;11.396;2022-08-30T00:25:41;5.97;;;2.70;;
73296;SDS011;61524;50.938;11.396;2022-08-30T00:28:06;6.32;;;2.72;;
73296;SDS011;61524;50.938;11.396;2022-08-30T00:30:33;5.45;;;2.70;;
73296;SDS011;61524;50.938;11.396;2022-08-30T00:32:59;10.50;;;2.60;;
73296;SDS011;61524;50.938;11.396;2022-08-30T00:35:25;5.05;;;2.40;;
73296;SDS011;61524;50.938;11.396;2022-08-30T00:37:51;5.95;;;2.95;;
73296;SDS011;61524;50.938;11.396;2022-08-30T00:40:17;6.13;;;2.85;;
73296;SDS011;61524;50.938;11.396;2022-08-30T00:42:44;5.55;;;2.53;;
73296;SDS011;61524;50.938;11.396;2022-08-30T00:47:36;7.28;;;3.10;;
73296;SDS011;61524;50.938;11.396;2022-08-30T00:50:02;5.97;;;2.80;;
73296;SDS011;61524;50.938;11.396;2022-08-30T00:52:29;6.22;;;2.95;;
73296;SDS011;61524;50.938;11.396;2022-08-30T00:54:54;5.03;;;2.47;;
73296;SDS011;61524;50.938;11.396;2022-08-30T00:57:20;4.90;;;2.42;;
73296;SDS011;61524;50.938;11.396;2022-08-30T00:59:46;6.03;;;2.63;;
73296;SDS011;61524;50.938;11.396;2022-08-30T01:02:14;5.78;;;2.40;;
73296;SDS011;61524;50.938;11.396;2022-08-30T01:04:42;6.22;;;2.58;;
73296;SDS011;61524;50.938;11.396;2022-08-30T01:07:09;8.85;;;3.22;;
73296;SDS011;61524;50.938;11.396;2022-08-30T01:09:35;5.10;;;2.55;;
73296;SDS011;61524;50.938;11.396;2022-08-30T01:12:02;4.65;;;2.10;;
73296;SDS011;61524;50.938;11.396;2022-08-30T01:14:30;5.85;;;2.40;;
73296;SDS011;61524;50.938;11.396;2022-08-30T01:16:58;6.68;;;2.95;;
73296;SDS011;61524;50.938;11.396;2022-08-30T01:19:31;5.75;;;3.17;;
73296;SDS011;61524;50.938;11.396;2022-08-30T01:25:14;6.22;;;2.90;;
73296;SDS011;61524;50.938;11.396;2022-08-30T01:27:44;6.03;;;2.50;;
73296;SDS011;61524;50.938;11.396;2022-08-30T01:30:15;4.47;;;2.25;;
73296;SDS011;61524;50.938;11.396;2022-08-30T01:32:41;6.25;;;3.00;;
73296;SDS011;61524;50.938;11.396;2022-08-30T01:35:10;5.57;;;2.58;;
73296;SDS011;61524;50.938;11.396;2022-08-30T01:37:37;5.03;;;2.70;;
73296;SDS011;61524;50.938;11.396;2022-08-30T01:40:03;7.70;;;2.97;;
73296;SDS011;61524;50.938;11.396;2022-08-30T01:42:34;6.25;;;3.08;;
73296;SDS011;61524;50.938;11.396;2022-08-30T01:44:59;5.50;;;2.03;;
73296;SDS011;61524;50.938;11.396;2022-08-30T01:47:25;5.82;;;2.78;;
73296;SDS011;61524;50.938;11.396;2022-08-30T01:49:51;5.68;;;3.30;;
73296;SDS011;61524;50.938;11.396;2022-08-30T01:52:17;5.97;;;2.78;;
73296;SDS011;61524;50.938;11.396;2022-08-30T01:54:43;4.95;;;2.83;;
73296;SDS011;61524;50.938;11.396;2022-08-30T01:57:12;5.30;;;2.53;;
73296;SDS011;61524;50.938;11.396;2022-08-30T01:59:40;5.85;;;2.80;;
73296;SDS011;61524;50.938;11.396;2022-08-30T02:02:11;5.45;;;2.75;;
73296;SDS011;61524;50.938;11.396;2022-08-30T02:04:50;7.90;;;3.53;;
73296;SDS011;61524;50.938;11.396;2022-08-30T02:07:16;5.85;;;2.80;;
73296;SDS011;61524;50.938;11.396;2022-08-30T02:09:41;7.00;;;2.80;;
73296;SDS011;61524;50.938;11.396;2022-08-30T02:12:07;5.60;;;3.05;;
73296;SDS011;61524;50.938;11.396;2022-08-30T02:14:33;6.57;;;3.17;;
73296;SDS011;61524;50.938;11.396;2022-08-30T02:19:26;7.05;;;3.60;;
73296;SDS011;61524;50.938;11.396;2022-08-30T02:21:52;7.55;;;2.42;;
73296;SDS011;61524;50.938;11.396;2022-08-30T02:24:17;11.73;;;3.42;;
73296;SDS011;61524;50.938;11.396;2022-08-30T02:26:43;5.45;;;3.10;;
73296;SDS011;61524;50.938;11.396;2022-08-30T02:29:08;5.13;;;2.40;;
73296;SDS011;61524;50.938;11.396;2022-08-30T02:31:34;7.53;;;2.90;;
73296;SDS011;61524;50.938;11.396;2022-08-30T02:33:59;4.75;;;2.30;;
73296;SDS011;61524;50.938;11.396;2022-08-30T02:36:25;6.10;;;2.67;;
73296;SDS011;61524;50.938;11.396;2022-08-30T02:38:51;7.35;;;2.70;;
73296;SDS011;61524;50.938;11.396;2022-08-30T02:41:17;6.22;;;2.65;;
73296;SDS011;61524;50.938;11.396;2022-08-30T02:43:43;6.95;;;3.38;;
73296;SDS011;61524;50.938;11.396;2022-08-30T02:46:09;5.65;;;2.13;;
73296;SDS011;61524;50.938;11.396;2022-08-30T02:48:34;5.80;;;2.67;;
73296;SDS011;61524;50.938;11.396;2022-08-30T02:51:07;8.23;;;3.10;;
73296;SDS011;61524;50.938;11.396;2022-08-30T02:53:35;6.50;;;2.58;;
73296;SDS011;61524;50.938;11.396;2022-08-30T02:56:01;5.85;;;2.53;;
73296;SDS011;61524;50.938;11.396;2022-08-30T02:58:26;5.63;;;2.70;;
73296;SDS011;61524;50.938;11.396;2022-08-30T03:00:52;6.38;;;2.83;;
73296;SDS011;61524;50.938;11.396;2022-08-30T03:03:18;6.57;;;2.67;;
73296;SDS011;61524;50.938;11.396;2022-08-30T03:05:43;4.97;;;2.67;;
73296;SDS011;61524;50.938;11.396;2022-08-30T03:08:09;5.55;;;2.92;;
73296;SDS011;61524;50.938;11.396;2022-08-30T03:10:35;6.22;;;2.65;;
73296;SDS011;61524;50.938;11.396;2022-08-30T03:15:29;5.93;;;2.75;;
73296;SDS011;61524;50.938;11.396;2022-08-30T03:17:54;5.72;;;2.60;;
73296;SDS011;61524;50.938;11.396;2022-08-30T03:20:22;7.60;;;2.80;;
73296;SDS011;61524;50.938;11.396;2022-08-30T03:22:48;5.15;;;2.10;;
73296;SDS011;61524;50.938;11.396;2022-08-30T03:25:15;5.55;;;2.60;;
73296;SDS011;61524;50.938;11.396;2022-08-30T03:27:40;6.07;;;2.70;;
73296;SDS011;61524;50.938;11.396;2022-08-30T03:30:06;7.97;;;3.33;;
73296;SDS011;61524;50.938;11.396;2022-08-30T03:32:32;6.55;;;2.92;;
73296;SDS011;61524;50.938;11.396;2022-08-30T03:34:58;6.03;;;2.97;;
73296;SDS011;61524;50.938;11.396;2022-08-30T03:37:24;5.35;;;2.75;;
73296;SDS011;61524;50.938;11.396;2022-08-30T03:39:51;4.50;;;2.40;;
73296;SDS011;61524;50.938;11.396;2022-08-30T03:42:18;6.05;;;2.65;;
73296;SDS011;61524;50.938;11.396;2022-08-30T03:44:44;7.10;;;3.22;;
73296;SDS011;61524;50.938;11.396;2022-08-30T03:47:09;6.28;;;3.00;;
73296;SDS011;61524;50.938;11.396;2022-08-30T03:49:35;7.07;;;2.95;;
73296;SDS011;61524;50.938;11.396;2022-08-30T03:52:00;7.55;;;3.20;;
73296;SDS011;61524;50.938;11.396;2022-08-30T03:54:26;6.68;;;3.30;;
73296;SDS011;61524;50.938;11.396;2022-08-30T03:56:51;6.47;;;2.67;;
73296;SDS011;61524;50.938;11.396;2022-08-30T03:59:17;5.32;;;2.83;;
73296;SDS011;61524;50.938;11.396;2022-08-30T04:01:42;5.25;;;2.28;;
73296;SDS011;61524;50.938;11.396;2022-08-30T04:04:09;6.40;;;2.83;;
73296;SDS011;61524;50.938;11.396;2022-08-30T04:06:35;9.73;;;2.88;;
73296;SDS011;61524;50.938;11.396;2022-08-30T04:09:01;7.15;;;3.33;;
73296;SDS011;61524;50.938;11.396;2022-08-30T04:11:26;8.13;;;3.25;;
73296;SDS011;61524;50.938;11.396;2022-08-30T04:13:52;6.57;;;3.42;;
73296;SDS011;61524;50.938;11.396;2022-08-30T04:16:19;8.00;;;3.40;;
73296;SDS011;61524;50.938;11.396;2022-08-30T04:18:46;8.27;;;3.10;;
73296;SDS011;61524;50.938;11.396;2022-08-30T04:21:12;7.45;;;2.97;;
73296;SDS011;61524;50.938;11.396;2022-08-30T04:23:38;5.78;;;3.03;;
73296;SDS011;61524;50.938;11.396;2022-08-30T04:26:03;9.63;;;2.92;;
73296;SDS011;61524;50.938;11.396;2022-08-30T04:28:29;8.88;;;2.88;;
73296;SDS011;61524;50.938;11.396;2022-08-30T04:30:55;7.13;;;3.15;;
73296;SDS011;61524;50.938;11.396;2022-08-30T04:33:20;5.95;;;3.17;;
73296;SDS011;61524;50.938;11.396;2022-08-30T04:35:47;7.45;;;3.13;;
73296;SDS011;61524;50.938;11.396;2022-08-30T04:38:14;6.03;;;3.10;;
73296;SDS011;61524;50.938;11.396;2022-08-30T04:40:41;6.63;;;3.05;;
73296;SDS011;61524;50.938;11.396;2022-08-30T04:43:08;5.57;;;3.00;;
73296;SDS011;61524;50.938;11.396;2022-08-30T04:45:37;5.10;;;2.72;;
73296;SDS011;61524;50.938;11.396;2022-08-30T04:48:04;5.72;;;2.65;;
73296;SDS011;61524;50.938;11.396;2022-08-30T04:50:30;5.38;;;2.95;;
73296;SDS011;61524;50.938;11.396;2022-08-30T04:52:55;6.95;;;2.92;;
73296;SDS011;61524;50.938;11.396;2022-08-30T04:55:21;4.88;;;2.65;;
73296;SDS011;61524;50.938;11.396;2022-08-30T04:57:48;6.18;;;2.88;;
73296;SDS011;61524;50.938;11.396;2022-08-30T05:00:15;6.93;;;3.05;;
73296;SDS011;61524;50.938;11.396;2022-08-30T05:02:41;6.82;;;3.13;;
73296;SDS011;61524;50.938;11.396;2022-08-30T05:05:07;9.80;;;3.13;;
73296;SDS011;61524;50.938;11.396;2022-08-30T05:07:53;5.53;;;2.95;;
73296;SDS011;61524;50.938;11.396;2022-08-30T05:10:18;7.75;;;2.92;;
73296;SDS011;61524;50.938;11.396;2022-08-30T05:12:44;6.63;;;3.00;;
73296;SDS011;61524;50.938;11.396;2022-08-30T05:15:10;7.65;;;3.10;;
73296;SDS011;61524;50.938;11.396;2022-08-30T05:17:37;6.25;;;3.15;;
73296;SDS011;61524;50.938;11.396;2022-08-30T05:20:05;6.15;;;3.47;;
73296;SDS011;61524;50.938;11.396;2022-08-30T05:22:34;9.23;;;4.03;;
73296;SDS011;61524;50.938;11.396;2022-08-30T05:25:00;5.40;;;2.63;;
73296;SDS011;61524;50.938;11.396;2022-08-30T05:27:26;6.00;;;2.70;;
73296;SDS011;61524;50.938;11.396;2022-08-30T05:29:51;8.52;;;3.17;;
73296;SDS011;61524;50.938;11.396;2022-08-30T05:32:17;5.80;;;3.40;;
73296;SDS011;61524;50.938;11.396;2022-08-30T05:34:43;5.40;;;2.90;;
73296;SDS011;61524;50.938;11.396;2022-08-30T05:37:08;7.53;;;3.15;;
73296;SDS011;61524;50.938;11.396;2022-08-30T05:39:34;5.95;;;2.97;;
73296;SDS011;61524;50.938;11.396;2022-08-30T05:42:00;6.05;;;3.22;;
73296;SDS011;61524;50.938;11.396;2022-08-30T05:44:25;5.60;;;2.70;;
73296;SDS011;61524;50.938;11.396;2022-08-30T05:46:51;8.20;;;3.05;;
73296;SDS011;61524;50.938;11.396;2022-08-30T05:49:16;8.85;;;3.08;;
73296;SDS011;61524;50.938;11.396;2022-08-30T05:51:41;6.57;;;3.03;;
73296;SDS011;61524;50.938;11.396;2022-08-30T05:54:07;6.82;;;2.78;;
73296;SDS011;61524;50.938;11.396;2022-08-30T05:56:34;7.60;;;2.92;;
73296;SDS011;61524;50.938;11.396;2022-08-30T05:59:01;6.10;;;2.92;;
73296;SDS011;61524;50.938;11.396;2022-08-30T06:01:32;5.68;;;3.13;;
73296;SDS011;61524;50.938;11.396;2022-08-30T06:04:04;5.22;;;2.78;;
73296;SDS011;61524;50.938;11.396;2022-08-30T06:06:31;6.38;;;3.05;;
73296;SDS011;61524;50.938;11.396;2022-08-30T06:08:58;6.22;;;3.10;;
73296;SDS011;61524;50.938;11.396;2022-08-30T06:11:24;6.22;;;2.80;;
73296;SDS011;61524;50.938;11.396;2022-08-30T06:13:51;7.22;;;3.00;;
73296;SDS011;61524;50.938;11.396;2022-08-30T06:16:19;6.75;;;2.88;;
73296;SDS011;61524;50.938;11.396;2022-08-30T06:18:46;6.00;;;2.88;;
73296;SDS011;61524;50.938;11.396;2022-08-30T06:21:23;6.88;;;3.03;;
73296;SDS011;61524;50.938;11.396;2022-08-30T06:23:49;6.72;;;3.28;;
73296;SDS011;61524;50.938;11.396;2022-08-30T06:26:15;6.00;;;2.95;;
73296;SDS011;61524;50.938;11.396;2022-08-30T06:28:41;12.43;;;3.47;;
73296;SDS011;61524;50.938;11.396;2022-08-30T06:31:07;6.80;;;2.95;;
73296;SDS011;61524;50.938;11.396;2022-08-30T06:33:34;6.20;;;3.00;;
73296;SDS011;61524;50.938;11.396;2022-08-30T06:36:01;8.82;;;3.38;;
73296;SDS011;61524;50.938;11.396;2022-08-30T06:38:31;6.25;;;2.75;;
73296;SDS011;61524;50.938;11.396;2022-08-30T06:40:57;7.90;;;2.60;;
73296;SDS011;61524;50.938;11.396;2022-08-30T06:43:22;7.30;;;2.28;;
73296;SDS011;61524;50.938;11.396;2022-08-30T06:45:48;9.63;;;3.17;;
73296;SDS011;61524;50.938;11.396;2022-08-30T06:48:14;5.85;;;2.90;;
73296;SDS011;61524;50.938;11.396;2022-08-30T06:50:39;7.20;;;3.25;;
73296;SDS011;61524;50.938;11.396;2022-08-30T06:53:06;6.25;;;3.03;;
73296;SDS011;61524;50.938;11.396;2022-08-30T06:55:32;6.22;;;3.28;;
73296;SDS011;61524;50.938;11.396;2022-08-30T06:57:59;6.05;;;3.00;;
73296;SDS011;61524;50.938;11.396;2022-08-30T07:00:24;7.82;;;3.45;;
73296;SDS011;61524;50.938;11.396;2022-08-30T07:02:50;7.47;;;3.95;;
73296;SDS011;61524;50.938;11.396;2022-08-30T07:05:17;6.20;;;3.03;;
73296;SDS011;61524;50.938;11.396;2022-08-30T07:07:46;7.45;;;3.38;;
73296;SDS011;61524;50.938;11.396;2022-08-30T07:10:12;7.15;;;3.58;;
73296;SDS011;61524;50.938;11.396;2022-08-30T07:12:39;7.90;;;3.88;;
73296;SDS011;61524;50.938;11.396;2022-08-30T07:15:05;6.18;;;3.05;;
73296;SDS011;61524;50.938;11.396;2022-08-30T07:17:32;8.95;;;4.30;;
73296;SDS011;61524;50.938;11.396;2022-08-30T07:20:17;7.80;;;3.83;;
73296;SDS011;61524;50.938;11.396;2022-08-30T07:22:44;6.28;;;3.85;;
73296;SDS011;61524;50.938;11.396;2022-08-30T07:27:35;10.57;;;4.30;;
73296;SDS011;61524;50.938;11.396;2022-08-30T07:30:01;9.10;;;3.97;;
73296;SDS011;61524;50.938;11.396;2022-08-30T07:34:53;10.65;;;3.88;;
73296;SDS011;61524;50.938;11.396;2022-08-30T07:37:19;8.98;;;4.57;;
73296;SDS011;61524;50.938;11.396;2022-08-30T07:39:44;8.98;;;4.53;;
73296;SDS011;61524;50.938;11.396;2022-08-30T07:42:10;7.15;;;3.67;;
73296;SDS011;61524;50.938;11.396;2022-08-30T07:44:35;7.10;;;4.63;;
73296;SDS011;61524;50.938;11.396;2022-08-30T07:47:01;11.05;;;5.28;;
73296;SDS011;61524;50.938;11.396;2022-08-30T07:49:26;10.85;;;4.07;;
73296;SDS011;61524;50.938;11.396;2022-08-30T07:51:52;9.52;;;4.35;;
73296;SDS011;61524;50.938;11.396;2022-08-30T07:54:17;9.02;;;4.32;;
73296;SDS011;61524;50.938;11.396;2022-08-30T07:56:43;13.30;;;5.25;;
73296;SDS011;61524;50.938;11.396;2022-08-30T07:59:08;12.18;;;4.88;;
73296;SDS011;61524;50.938;11.396;2022-08-30T08:01:33;8.93;;;4.50;;
73296;SDS011;61524;50.938;11.396;2022-08-30T08:03:59;11.23;;;4.50;;
73296;SDS011;61524;50.938;11.396;2022-08-30T08:06:24;9.70;;;4.47;;
73296;SDS011;61524;50.938;11.396;2022-08-30T08:08:51;10.30;;;4.43;;
73296;SDS011;61524;50.938;11.396;2022-08-30T08:11:24;7.68;;;4.15;;
73296;SDS011;61524;50.938;11.396;2022-08-30T08:13:51;10.70;;;4.18;;
73296;SDS011;61524;50.938;11.396;2022-08-30T08:16:17;6.93;;;4.60;;
73296;SDS011;61524;50.938;11.396;2022-08-30T08:18:43;10.52;;;4.15;;
73296;SDS011;61524;50.938;11.396;2022-08-30T08:21:09;10.07;;;3.33;;
73296;SDS011;61524;50.938;11.396;2022-08-30T08:23:35;6.40;;;3.65;;
73296;SDS011;61524;50.938;11.396;2022-08-30T08:26:01;10.38;;;3.35;;
73296;SDS011;61524;50.938;11.396;2022-08-30T08:28:27;5.80;;;3.03;;
73296;SDS011;61524;50.938;11.396;2022-08-30T08:30:53;6.82;;;3.72;;
73296;SDS011;61524;50.938;11.396;2022-08-30T08:33:19;6.38;;;3.17;;
73296;SDS011;61524;50.938;11.396;2022-08-30T08:35:45;6.80;;;4.03;;
73296;SDS011;61524;50.938;11.396;2022-08-30T08:38:10;7.50;;;2.90;;
73296;SDS011;61524;50.938;11.396;2022-08-30T08:40:46;7.93;;;3.55;;
73296;SDS011;61524;50.938;11.396;2022-08-30T08:43:15;6.60;;;4.00;;
73296;SDS011;61524;50.938;11.396;2022-08-30T08:51:13;9.65;;;4.20;;
73296;SDS011;61524;50.938;11.396;2022-08-30T08:54:03;7.50;;;3.78;;
73296;SDS011;61524;50.938;11.396;2022-08-30T08:56:32;7.72;;;3.85;;
73296;SDS011;61524;50.938;11.396;2022-08-30T08:58:58;10.45;;;4.70;;
73296;SDS011;61524;50.938;11.396;2022-08-30T09:01:25;7.07;;;4.22;;
73296;SDS011;61524;50.938;11.396;2022-08-30T09:03:53;9.18;;;3.90;;
73296;SDS011;61524;50.938;11.396;2022-08-30T09:09:09;7.95;;;5.00;;
73296;SDS011;61524;50.938;11.396;2022-08-30T09:11:36;6.22;;;3.30;;
73296;SDS011;61524;50.938;11.396;2022-08-30T09:14:05;5.93;;;3.72;;
73296;SDS011;61524;50.938;11.396;2022-08-30T09:19:34;9.15;;;4.20;;
73296;SDS011;61524;50.938;11.396;2022-08-30T09:22:10;6.20;;;3.47;;
73296;SDS011;61524;50.938;11.396;2022-08-30T09:24:46;9.35;;;3.40;;
73296;SDS011;61524;50.938;11.396;2022-08-30T09:32:23;5.43;;;2.85;;
73296;SDS011;61524;50.938;11.396;2022-08-30T09:34:53;5.57;;;2.17;;
73296;SDS011;61524;50.938;11.396;2022-08-30T09:37:23;8.30;;;3.33;;
73296;SDS011;61524;50.938;11.396;2022-08-30T09:39:50;4.95;;;2.80;;
73296;SDS011;61524;50.938;11.396;2022-08-30T09:42:33;6.20;;;3.10;;
73296;SDS011;61524;50.938;11.396;2022-08-30T09:44:59;8.23;;;4.80;;
73296;SDS011;61524;50.938;11.396;2022-08-30T09:47:45;9.23;;;4.10;;
73296;SDS011;61524;50.938;11.396;2022-08-30T09:50:15;6.97;;;3.67;;
73296;SDS011;61524;50.938;11.396;2022-08-30T09:52:50;9.20;;;4.78;;
73296;SDS011;61524;50.938;11.396;2022-08-30T09:55:36;10.85;;;4.70;;
73296;SDS011;61524;50.938;11.396;2022-08-30T10:00:55;12.93;;;7.10;;
73296;SDS011;61524;50.938;11.396;2022-08-30T10:12:01;14.23;;;6.28;;
73296;SDS011;61524;50.938;11.396;2022-08-30T10:14:44;14.90;;;6.95;;
73296;SDS011;61524;50.938;11.396;2022-08-30T10:17:28;10.40;;;6.32;;
73296;SDS011;61524;50.938;11.396;2022-08-30T10:23:25;10.07;;;5.30;;
73296;SDS011;61524;50.938;11.396;2022-08-30T10:25:56;12.10;;;6.13;;
73296;SDS011;61524;50.938;11.396;2022-08-30T10:31:04;12.98;;;6.72;;
73296;SDS011;61524;50.938;11.396;2022-08-30T10:33:39;10.63;;;4.95;;
73296;SDS011;61524;50.938;11.396;2022-08-30T10:36:10;8.45;;;4.47;;
73296;SDS011;61524;50.938;11.396;2022-08-30T10:38:41;8.18;;;4.35;;
73296;SDS011;61524;50.938;11.396;2022-08-30T10:43:57;6.55;;;3.13;;
73296;SDS011;61524;50.938;11.396;2022-08-30T10:48:58;6.15;;;2.78;;
73296;SDS011;61524;50.938;11.396;2022-08-30T10:51:37;6.35;;;2.70;;
73296;SDS011;61524;50.938;11.396;2022-08-30T10:54:10;7.78;;;2.90;;
73296;SDS011;61524;50.938;11.396;2022-08-30T10:56:42;6.05;;;3.25;;
73296;SDS011;61524;50.938;11.396;2022-08-30T10:59:09;5.03;;;2.42;;
73296;SDS011;61524;50.938;11.396;2022-08-30T11:09:51;6.43;;;2.40;;
73296;SDS011;61524;50.938;11.396;2022-08-30T11:12:35;4.28;;;1.83;;
73296;SDS011;61524;50.938;11.396;2022-08-30T11:16:32;4.95;;;2.25;;
73296;SDS011;61524;50.938;11.396;2022-08-30T11:18:29;4.82;;;2.83;;
73296;SDS011;61524;50.938;11.396;2022-08-30T11:23:41;5.30;;;2.33;;
73296;SDS011;61524;50.938;11.396;2022-08-30T11:31:52;4.68;;;2.30;;
73296;SDS011;61524;50.938;11.396;2022-08-30T11:37:37;4.20;;;2.20;;
73296;SDS011;61524;50.938;11.396;2022-08-30T11:42:46;4.97;;;2.33;;
73296;SDS011;61524;50.938;11.396;2022-08-30T11:47:48;6.53;;;2.10;;
73296;SDS011;61524;50.938;11.396;2022-08-30T11:53:09;5.45;;;2.42;;
73296;SDS011;61524;50.938;11.396;2022-08-30T11:55:55;5.53;;;2.15;;
73296;SDS011;61524;50.938;11.396;2022-08-30T11:58:46;4.30;;;2.15;;
73296;SDS011;61524;50.938;11.396;2022-08-30T12:03:58;7.85;;;1.98;;
73296;SDS011;61524;50.938;11.396;2022-08-30T12:12:05;4.20;;;1.92;;
73296;SDS011;61524;50.938;11.396;2022-08-30T12:17:17;5.10;;;1.85;;
73296;SDS011;61524;50.938;11.396;2022-08-30T12:20:10;4.20;;;1.92;;
73296;SDS011;61524;50.938;11.396;2022-08-30T12:22:59;5.15;;;1.83;;
73296;SDS011;61524;50.938;11.396;2022-08-30T12:26:15;8.48;;;1.85;;
73296;SDS011;61524;50.938;11.396;2022-08-30T12:31:40;5.88;;;2.15;;
73296;SDS011;61524;50.938;11.396;2022-08-30T12:34:25;3.80;;;1.98;;
73296;SDS011;61524;50.938;11.396;2022-08-30T12:37:04;3.67;;;1.80;;
73296;SDS011;61524;50.938;11.396;2022-08-30T12:39:59;3.78;;;2.03;;
73296;SDS011;61524;50.938;11.396;2022-08-30T12:42:28;4.60;;;1.90;;
73296;SDS011;61524;50.938;11.396;2022-08-30T12:44:57;5.70;;;2.08;;
73296;SDS011;61524;50.938;11.396;2022-08-30T12:47:29;3.88;;;2.22;;
73296;SDS011;61524;50.938;11.396;2022-08-30T12:49:58;8.07;;;2.47;;
73296;SDS011;61524;50.938;11.396;2022-08-30T12:54:51;5.25;;;2.22;;
73296;SDS011;61524;50.938;11.396;2022-08-30T12:57:41;5.75;;;2.00;;
73296;SDS011;61524;50.938;11.396;2022-08-30T13:02:51;7.53;;;2.58;;
73296;SDS011;61524;50.938;11.396;2022-08-30T13:05:34;8.65;;;2.60;;
73296;SDS011;61524;50.938;11.396;2022-08-30T13:08:09;4.72;;;2.75;;
73296;SDS011;61524;50.938;11.396;2022-08-30T13:10:48;6.88;;;3.20;;
73296;SDS011;61524;50.938;11.396;2022-08-30T13:13:27;5.40;;;2.47;;
73296;SDS011;61524;50.938;11.396;2022-08-30T13:16:10;6.00;;;2.53;;
73296;SDS011;61524;50.938;11.396;2022-08-30T13:18:36;4.60;;;2.38;;
73296;SDS011;61524;50.938;11.396;2022-08-30T13:21:09;5.75;;;2.42;;
73296;SDS011;61524;50.938;11.396;2022-08-30T13:23:34;4.38;;;2.17;;
73296;SDS011;61524;50.938;11.396;2022-08-30T13:26:00;7.07;;;2.10;;
73296;SDS011;61524;50.938;11.396;2022-08-30T13:28:25;4.32;;;2.30;;
73296;SDS011;61524;50.938;11.396;2022-08-30T13:30:51;5.22;;;2.92;;
73296;SDS011;61524;50.938;11.396;2022-08-30T13:33:17;4.78;;;2.80;;
73296;SDS011;61524;50.938;11.396;2022-08-30T13:35:43;8.50;;;3.15;;
73296;SDS011;61524;50.938;11.396;2022-08-30T13:38:08;5.38;;;3.03;;
73296;SDS011;61524;50.938;11.396;2022-08-30T13:40:34;7.28;;;2.90;;
73296;SDS011;61524;50.938;11.396;2022-08-30T13:43:00;6.43;;;2.92;;
73296;SDS011;61524;50.938;11.396;2022-08-30T13:45:25;8.23;;;3.20;;
73296;SDS011;61524;50.938;11.396;2022-08-30T13:47:51;6.28;;;3.30;;
73296;SDS011;61524;50.938;11.396;2022-08-30T13:50:17;6.22;;;2.80;;
73296;SDS011;61524;50.938;11.396;2022-08-30T13:52:43;7.22;;;3.20;;
73296;SDS011;61524;50.938;11.396;2022-08-30T13:55:09;9.40;;;3.10;;
73296;SDS011;61524;50.938;11.396;2022-08-30T13:57:35;7.07;;;3.13;;
73296;SDS011;61524;50.938;11.396;2022-08-30T14:00:02;6.07;;;3.15;;
73296;SDS011;61524;50.938;11.396;2022-08-30T14:02:29;6.50;;;2.90;;
73296;SDS011;61524;50.938;11.396;2022-08-30T14:04:54;6.13;;;3.13;;
73296;SDS011;61524;50.938;11.396;2022-08-30T14:07:20;6.40;;;2.83;;
73296;SDS011;61524;50.938;11.396;2022-08-30T14:09:46;5.38;;;3.58;;
73296;SDS011;61524;50.938;11.396;2022-08-30T14:12:11;6.57;;;2.55;;
73296;SDS011;61524;50.938;11.396;2022-08-30T14:14:36;4.90;;;2.40;;
73296;SDS011;61524;50.938;11.396;2022-08-30T14:17:02;5.32;;;3.33;;
73296;SDS011;61524;50.938;11.396;2022-08-30T14:19:27;7.20;;;3.15;;
73296;SDS011;61524;50.938;11.396;2022-08-30T14:21:53;6.65;;;3.60;;
73296;SDS011;61524;50.938;11.396;2022-08-30T14:24:18;5.68;;;3.05;;
73296;SDS011;61524;50.938;11.396;2022-08-30T14:26:45;4.35;;;2.95;;
73296;SDS011;61524;50.938;11.396;2022-08-30T14:29:14;5.32;;;3.80;;
73296;SDS011;61524;50.938;11.396;2022-08-30T14:31:42;18.40;;;3.95;;
73296;SDS011;61524;50.938;11.396;2022-08-30T14:34:08;6.07;;;3.30;;
73296;SDS011;61524;50.938;11.396;2022-08-30T14:36:36;26.25;;;4.97;;
73296;SDS011;61524;50.938;11.396;2022-08-30T14:39:05;5.55;;;2.72;;
73296;SDS011;61524;50.938;11.396;2022-08-30T14:41:32;5.05;;;2.88;;
73296;SDS011;61524;50.938;11.396;2022-08-30T14:43:58;45.90;;;5.32;;
73296;SDS011;61524;50.938;11.396;2022-08-30T14:46:24;4.72;;;2.67;;
73296;SDS011;61524;50.938;11.396;2022-08-30T14:48:51;4.68;;;2.80;;
73296;SDS011;61524;50.938;11.396;2022-08-30T14:51:18;43.90;;;5.82;;
73296;SDS011;61524;50.938;11.396;2022-08-30T14:53:46;5.55;;;3.30;;
73296;SDS011;61524;50.938;11.396;2022-08-30T14:56:15;4.72;;;3.15;;
73296;SDS011;61524;50.938;11.396;2022-08-30T14:58:42;7.07;;;2.85;;
73296;SDS011;61524;50.938;11.396;2022-08-30T15:01:08;8.25;;;3.17;;
73296;SDS011;61524;50.938;11.396;2022-08-30T15:03:36;5.05;;;2.72;;
73296;SDS011;61524;50.938;11.396;2022-08-30T15:06:03;5.60;;;2.92;;
73296;SDS011;61524;50.938;11.396;2022-08-30T15:08:29;4.90;;;3.03;;
73296;SDS011;61524;50.938;11.396;2022-08-30T15:10:54;5.40;;;3.53;;
73296;SDS011;61524;50.938;11.396;2022-08-30T15:13:20;7.65;;;3.25;;
73296;SDS011;61524;50.938;11.396;2022-08-30T15:15:45;6.10;;;2.80;;
73296;SDS011;61524;50.938;11.396;2022-08-30T15:18:11;6.03;;;2.78;;
73296;SDS011;61524;50.938;11.396;2022-08-30T15:20:42;5.20;;;2.95;;
73296;SDS011;61524;50.938;11.396;2022-08-30T15:23:09;7.60;;;3.00;;
73296;SDS011;61524;50.938;11.396;2022-08-30T15:25:35;6.60;;;2.92;;
73296;SDS011;61524;50.938;11.396;2022-08-30T15:28:00;6.45;;;3.00;;
73296;SDS011;61524;50.938;11.396;2022-08-30T15:30:26;4.65;;;2.42;;
73296;SDS011;61524;50.938;11.396;2022-08-30T15:32:51;6.78;;;2.95;;
73296;SDS011;61524;50.938;11.396;2022-08-30T15:35:17;6.68;;;3.00;;
73296;SDS011;61524;50.938;11.396;2022-08-30T15:37:42;6.10;;;2.85;;
73296;SDS011;61524;50.938;11.396;2022-08-30T15:40:08;5.30;;;2.80;;
73296;SDS011;61524;50.938;11.396;2022-08-30T15:42:34;6.38;;;3.08;;
73296;SDS011;61524;50.938;11.396;2022-08-30T15:44:59;5.10;;;3.08;;
73296;SDS011;61524;50.938;11.396;2022-08-30T15:47:25;5.32;;;2.72;;
73296;SDS011;61524;50.938;11.396;2022-08-30T15:49:54;7.43;;;3.00;;
73296;SDS011;61524;50.938;11.396;2022-08-30T15:52:21;7.70;;;3.60;;
73296;SDS011;61524;50.938;11.396;2022-08-30T15:54:46;6.60;;;3.67;;
73296;SDS011;61524;50.938;11.396;2022-08-30T15:57:12;7.97;;;3.15;;
73296;SDS011;61524;50.938;11.396;2022-08-30T15:59:37;7.18;;;3.03;;
73296;SDS011;61524;50.938;11.396;2022-08-30T16:02:03;4.75;;;3.40;;
73296;SDS011;61524;50.938;11.396;2022-08-30T16:04:28;5.30;;;3.00;;
73296;SDS011;61524;50.938;11.396;2022-08-30T16:06:54;5.75;;;2.90;;
73296;SDS011;61524;50.938;11.396;2022-08-30T16:09:19;5.28;;;3.13;;
73296;SDS011;61524;50.938;11.396;2022-08-30T16:11:45;5.65;;;3.08;;
73296;SDS011;61524;50.938;11.396;2022-08-30T16:16:37;5.53;;;3.57;;
73296;SDS011;61524;50.938;11.396;2022-08-30T16:19:02;6.25;;;3.10;;
73296;SDS011;61524;50.938;11.396;2022-08-30T16:21:29;5.35;;;3.30;;
73296;SDS011;61524;50.938;11.396;2022-08-30T16:23:58;6.78;;;3.92;;